Terminal Aerodrome Forecast
Issued by NWS

Home | Current Version | Previous Version | Text Only | Print | Product List | Glossary On
Versions: 1 2 3 4 5 6 7 8 9 10 11 12 13 14 15 16
000
FTUS41 KRNK 250520
TAFBCB
TAF
KBCB 250520Z 2506/2606 00000KT P6SM SKC
      TEMPO 2509/2512 4SM BR
     FM251600 27008KT P6SM SCT050=

USA.gov is the U.S. government's official web portal to all federal, state and local government web resources and services.